Weather History for Belmar-Farmingdale, NJ

Change the Weather History Date:

Monday, March 4, 2013

  Actual Average Record
Temperature  
Mean Temperature 34 °F -  
Max Temperature 42 °F 43 °F 66 °F (2008)
Min Temperature 26 °F 29 °F 8 °F (2014)
Degree Days  
Heating Degree Days 31    
Moisture  
Dew Point 18 °F    
Average Humidity 52    
Maximum Humidity 69    
Minimum Humidity 39    
Precipitation  
Precipitation 0.00 in - - ()
Sea Level Pressure  
Sea Level Pressure 29.82 in    
Wind  
Wind Speed 16 mph (WNW)    
Max Wind Speed 25 mph    
Max Gust Speed 32 mph    
Visibility 10 miles    
Events      
Averages and records for this station are not official NWS values.
T = Trace of Precipitation, MM = Missing Value Source: NWS Daily Summary

Daily Weather History Graph

Daily Weather History Graph

Search for Another Location

Airport:

Trip Planner

Search our weather history database for the weather conditions in past years. The results will help you decide how hot, cold, wet, or windy it might be!

Date:

Astronomy

Mar. 04, 2013 Rise Set
Actual Time 6:25 AM EST 5:51 PM EST
Civil Twilight 5:57 AM EST 6:18 PM EST
Nautical Twilight 5:26 AM EST 6:50 PM EST
Astronomical Twilight 4:55 AM EST 7:21 PM EST
Moon 12:32 AM EST (3/4) 10:30 AM EST (3/4)
Length of Visible Light 12h 21m
Length of Day
11h 26m
Waning Gibbous, 52% of the Moon is Illuminated
Mar 4
Waning Gibbous
Mar 4
Last Quarter
Mar 11
New
Mar 19
First Quarter
Mar 27
Full

Hourly Weather History & Observations

Time (EST) Temp. Windchill Dew Point Humidity Pressure Visibility Wind Dir Wind Speed Gust Speed Precip Events Conditions
12:15 AM 30.2 °F 17.4 °F 15.8 °F 55% 29.77 in 10.0 mi NW 20.7 mph 25.3 mph N/A   Clear
12:35 AM 28.4 °F 15.1 °F 15.8 °F 59% 29.77 in 10.0 mi NW 20.7 mph 25.3 mph N/A   Clear
12:55 AM 28.4 °F 17.5 °F 15.8 °F 59% 29.78 in 10.0 mi NW 13.8 mph 23.0 mph N/A   Clear
1:15 AM 28.4 °F 15.4 °F 15.8 °F 59% 29.78 in 10.0 mi WNW 19.6 mph 23.0 mph N/A   Clear
1:35 AM 28.4 °F 17.0 °F 14.0 °F 55% 29.78 in 10.0 mi NW 15.0 mph 24.2 mph N/A   Clear
1:55 AM 28.4 °F 17.5 °F 14.0 °F 55% 29.78 in 10.0 mi WNW 13.8 mph - N/A   Clear
2:15 AM 28.4 °F 18.0 °F 15.8 °F 59% 29.78 in 10.0 mi WNW 12.7 mph 20.7 mph N/A   Clear
2:35 AM 28.4 °F 15.8 °F 15.8 °F 59% 29.78 in 10.0 mi NW 18.4 mph 25.3 mph N/A   Clear
2:55 AM 28.4 °F 18.0 °F 14.0 °F 55% 29.78 in 10.0 mi WNW 12.7 mph 18.4 mph N/A   Clear
3:15 AM 28.4 °F 17.5 °F 15.8 °F 59% 29.78 in 10.0 mi NW 13.8 mph 19.6 mph N/A   Clear
3:35 AM 26.6 °F 15.7 °F 15.8 °F 64% 29.78 in 10.0 mi WNW 12.7 mph 17.3 mph N/A   Clear
3:55 AM 26.6 °F 16.2 °F 15.8 °F 64% 29.79 in 10.0 mi WNW 11.5 mph - N/A   Clear
4:15 AM 26.6 °F 16.8 °F 15.8 °F 64% 29.79 in 10.0 mi NW 10.4 mph - N/A   Clear
4:35 AM 26.6 °F 16.8 °F 15.8 °F 64% 29.79 in 10.0 mi WNW 10.4 mph - N/A   Clear
4:55 AM 26.6 °F 16.8 °F 15.8 °F 64% 29.79 in 10.0 mi WNW 10.4 mph - N/A   Clear
5:15 AM 26.6 °F 16.8 °F 15.8 °F 64% 29.80 in 10.0 mi WNW 10.4 mph - N/A   Clear
5:35 AM 26.6 °F 16.8 °F 15.8 °F 64% 29.80 in 10.0 mi WNW 10.4 mph - N/A   Clear
5:55 AM 26.6 °F 16.2 °F 15.8 °F 64% 29.80 in 10.0 mi WNW 11.5 mph - N/A   Clear
6:15 AM 26.6 °F 16.8 °F 17.6 °F 69% 29.81 in 10.0 mi WNW 10.4 mph - N/A   Clear
6:35 AM 26.6 °F 16.2 °F 17.6 °F 69% 29.81 in 10.0 mi WNW 11.5 mph - N/A   Clear
7:15 AM 28.4 °F 16.6 °F 17.6 °F 64% 29.82 in 10.0 mi WNW 16.1 mph 24.2 mph N/A   Clear
7:35 AM 30.2 °F 20.2 °F 17.6 °F 60% 29.82 in 10.0 mi WNW 12.7 mph 23.0 mph N/A   Clear
7:55 AM 30.2 °F 18.9 °F 17.6 °F 60% 29.82 in 10.0 mi NW 16.1 mph 24.2 mph N/A   Clear
8:15 AM 30.2 °F 18.9 °F 17.6 °F 60% 29.83 in 10.0 mi WNW 16.1 mph 24.2 mph N/A   Partly Cloudy
8:35 AM 32.0 °F 20.5 °F 19.4 °F 60% 29.82 in 10.0 mi WNW 18.4 mph 28.8 mph N/A   Partly Cloudy
8:55 AM 32.0 °F 19.8 °F 17.6 °F 55% 29.82 in 10.0 mi NW 20.7 mph 26.5 mph N/A   Clear
9:15 AM 33.8 °F 21.6 °F 17.6 °F 52% 29.82 in 10.0 mi WNW 23.0 mph 29.9 mph N/A   Clear
9:35 AM 33.8 °F 22.2 °F 17.6 °F 52% 29.82 in 10.0 mi WNW 20.7 mph 29.9 mph N/A   Clear
9:55 AM 33.8 °F 23.5 °F 19.4 °F 56% 29.82 in 10.0 mi WNW 16.1 mph 26.5 mph N/A   Clear
10:15 AM 35.6 °F 24.8 °F 17.6 °F 48% 29.82 in 10.0 mi WNW 19.6 mph 25.3 mph N/A   Clear
10:35 AM 35.6 °F 24.5 °F 17.6 °F 48% 29.83 in 10.0 mi WNW 20.7 mph 32.2 mph N/A   Clear
10:55 AM 35.6 °F 24.2 °F 19.4 °F 52% 29.82 in 10.0 mi WNW 21.9 mph 29.9 mph N/A   Clear
11:15 AM 37.4 °F 27.5 °F 17.6 °F 45% 29.82 in 10.0 mi WNW 18.4 mph 28.8 mph N/A   Clear
11:35 AM 37.4 °F 27.5 °F 17.6 °F 45% 29.82 in 10.0 mi NW 18.4 mph 27.6 mph N/A   Clear
11:55 AM 37.4 °F 27.8 °F 17.6 °F 45% 29.81 in 10.0 mi West 17.3 mph 28.8 mph N/A   Clear
12:15 PM 39.2 °F 30.2 °F 19.4 °F 45% 29.81 in 10.0 mi West 17.3 mph 24.2 mph N/A   Clear
12:35 PM 39.2 °F 30.5 °F 19.4 °F 45% 29.80 in 10.0 mi WNW 16.1 mph 23.0 mph N/A   Clear
12:55 PM 39.2 °F 29.8 °F 19.4 °F 45% 29.80 in 10.0 mi WNW 18.4 mph 27.6 mph N/A   Clear
1:15 PM 41.0 °F 33.1 °F 19.4 °F 42% 29.79 in 10.0 mi WNW 15.0 mph 27.6 mph N/A   Clear
1:55 PM 41.0 °F 31.4 °F 19.4 °F 42% 29.78 in 10.0 mi West 21.9 mph 28.8 mph N/A   Clear
2:15 PM 41.0 °F 31.4 °F 19.4 °F 42% 29.78 in 10.0 mi WNW 21.9 mph 27.6 mph N/A   Clear
2:35 PM 42.8 °F 34.5 °F 19.4 °F 39% 29.78 in 10.0 mi WNW 18.4 mph 26.5 mph N/A   Clear
2:55 PM 42.8 °F 33.8 °F 19.4 °F 39% 29.78 in 10.0 mi West 21.9 mph 26.5 mph N/A   Clear
3:15 PM 42.8 °F 34.3 °F 19.4 °F 39% 29.78 in 10.0 mi WNW 19.6 mph 26.5 mph N/A   Clear
3:35 PM 42.8 °F 33.1 °F 19.4 °F 39% 29.78 in 10.0 mi NW 25.3 mph 32.2 mph N/A   Clear
3:55 PM 42.8 °F 34.3 °F 19.4 °F 39% 29.78 in 10.0 mi NW 19.6 mph 29.9 mph N/A   Clear
4:15 PM 42.8 °F 34.8 °F 19.4 °F 39% 29.79 in 10.0 mi NW 17.3 mph 25.3 mph N/A   Clear
4:35 PM 42.8 °F 34.0 °F 19.4 °F 39% 29.79 in 10.0 mi NW 20.7 mph 27.6 mph N/A   Clear
4:55 PM 41.0 °F 33.1 °F 17.6 °F 39% 29.80 in 10.0 mi WNW 15.0 mph 21.9 mph N/A   Clear
5:15 PM 41.0 °F 34.3 °F 19.4 °F 42% 29.80 in 10.0 mi WNW 11.5 mph 21.9 mph N/A   Clear
5:35 PM 39.2 °F 32.0 °F 19.4 °F 45% 29.81 in 10.0 mi WNW 11.5 mph 19.6 mph N/A   Clear
5:55 PM 39.2 °F 31.2 °F 17.6 °F 42% 29.82 in 10.0 mi WNW 13.8 mph 19.6 mph N/A   Clear
6:15 PM 39.2 °F 33.6 °F 17.6 °F 42% 29.82 in 10.0 mi West 8.1 mph - N/A   Clear
6:35 PM 39.2 °F 31.6 °F 17.6 °F 42% 29.83 in 10.0 mi WNW 12.7 mph - N/A   Clear
6:55 PM 37.4 °F 29.3 °F 17.6 °F 45% 29.85 in 10.0 mi NW 12.7 mph - N/A   Clear
7:15 PM 37.4 °F 28.5 °F 17.6 °F 45% 29.86 in 10.0 mi NW 15.0 mph 23.0 mph N/A   Clear
7:35 PM 37.4 °F 26.6 °F 17.6 °F 45% 29.87 in 10.0 mi NW 21.9 mph 31.1 mph N/A   Clear
7:55 PM 35.6 °F 24.5 °F 17.6 °F 48% 29.87 in 10.0 mi NW 20.7 mph 25.3 mph N/A   Clear
8:15 PM 35.6 °F 25.2 °F 17.6 °F 48% 29.88 in 10.0 mi NW 18.4 mph 24.2 mph N/A   Clear
8:35 PM 35.6 °F 25.2 °F 17.6 °F 48% 29.88 in 10.0 mi WNW 18.4 mph 26.5 mph N/A   Clear
8:55 PM 35.6 °F 26.2 °F 17.6 °F 48% 29.88 in 10.0 mi WNW 15.0 mph 21.9 mph N/A   Clear
9:35 PM 35.6 °F 27.1 °F 19.4 °F 52% 29.89 in 10.0 mi NW 12.7 mph - N/A   Clear
9:55 PM 33.8 °F 23.9 °F 19.4 °F 56% 29.90 in 10.0 mi NW 15.0 mph - N/A   Clear
10:15 PM 33.8 °F 23.9 °F 19.4 °F 56% 29.90 in 10.0 mi NW 15.0 mph 23.0 mph N/A   Clear
10:35 PM 33.8 °F 23.9 °F 19.4 °F 56% 29.91 in 10.0 mi WNW 15.0 mph 20.7 mph N/A   Clear
10:55 PM 33.8 °F 25.3 °F 19.4 °F 56% 29.91 in 10.0 mi NW 11.5 mph - N/A   Clear
11:15 PM 33.8 °F 24.8 °F 19.4 °F 56% 29.91 in 10.0 mi NW 12.7 mph - N/A   Clear
11:35 PM 33.8 °F 23.5 °F 19.4 °F 56% 29.91 in 10.0 mi NW 16.1 mph 21.9 mph N/A   Clear
11:55 PM 33.8 °F 26.4 °F 19.4 °F 56% 29.92 in 10.0 mi WNW 9.2 mph - N/A   Clear